Time;durP1;ratioP1;P1;durP2;ratioP2;P2;SDS_P1;SDS_P2;PMS_P1;PMS_P2;Temp;Humidity;BMP_temperature;BMP_pressure;BME280_temperature;BME280_humidity;BME280_pressure;Samples;Min_cycle;Max_cycle;Signal;HPM_P1;HPM_P2
2022/11/20 00:01:27;;;;;;;6.45;2.58;;;2.40;99.90;;;0.77;100.00;100528.88;4946668;29;20108;-77
2022/11/20 00:03:56;;;;;;;4.00;2.53;;;2.40;99.90;;;0.74;100.00;100526.34;4943658;29;20035;-78
2022/11/20 00:06:23;;;;;;;7.30;2.65;;;2.40;99.90;;;0.78;100.00;100522.84;4942673;28;20697;-77
2022/11/20 00:08:49;;;;;;;3.47;2.60;;;2.50;99.90;;;0.88;100.00;100529.63;4948174;29;20045;-77
2022/11/20 00:11:23;;;;;;;4.25;2.20;;;2.50;99.90;;;0.85;100.00;100528.81;4945985;28;20551;-77
2022/11/20 00:13:54;;;;;;;3.75;2.42;;;2.50;99.90;;;0.92;100.00;100540.84;4941653;29;20035;-77
2022/11/20 00:16:25;;;;;;;4.65;2.70;;;2.60;99.90;;;0.99;100.00;100539.91;4951348;28;20568;-78
2022/11/20 00:18:53;;;;;;;6.50;2.88;;;2.60;99.90;;;0.98;100.00;100538.19;4927403;29;20039;-78
2022/11/20 00:21:22;;;;;;;5.32;3.47;;;2.60;99.90;;;1.01;100.00;100536.41;4951157;29;20031;-77
2022/11/20 00:23:50;;;;;;;7.25;3.20;;;2.60;99.90;;;0.97;100.00;100533.88;4948971;29;20031;-77
2022/11/20 00:26:20;;;;;;;5.30;3.15;;;2.60;99.90;;;0.95;100.00;100533.91;4942277;28;20023;-77
2022/11/20 00:28:58;;;;;;;4.72;3.40;;;2.60;99.90;;;0.89;100.00;100533.09;4941836;29;20515;-78
2022/11/20 00:31:25;;;;;;;5.50;3.13;;;2.60;99.90;;;0.93;100.00;100535.66;4960331;28;20040;-78
2022/11/20 00:33:51;;;;;;;9.07;3.22;;;2.60;99.90;;;1.00;100.00;100536.44;4942479;28;20032;-77
2022/11/20 00:36:26;;;;;;;8.25;2.40;;;2.60;99.90;;;1.06;100.00;100532.91;4949213;29;20035;-77
2022/11/20 00:38:55;;;;;;;5.45;2.65;;;2.70;99.90;;;1.07;100.00;100527.72;4941611;29;20043;-77
2022/11/20 00:41:22;;;;;;;3.95;2.67;;;2.70;99.90;;;1.07;100.00;100532.91;4949951;28;20050;-77
2022/11/20 00:43:48;;;;;;;4.15;2.63;;;2.70;99.90;;;1.08;100.00;100534.63;4959794;28;20039;-78
2022/11/20 00:46:19;;;;;;;6.07;2.35;;;2.70;99.90;;;1.07;100.00;100532.91;4949008;29;20047;-77
2022/11/20 00:48:45;;;;;;;4.32;2.67;;;2.70;99.90;;;1.04;100.00;100530.34;4947433;29;20059;-78
2022/11/20 00:51:18;;;;;;;4.70;2.67;;;2.70;99.90;;;1.08;100.00;100531.16;4940249;28;20134;-77
2022/11/20 00:53:46;;;;;;;4.05;2.38;;;2.70;99.90;;;1.06;100.00;100530.31;4941157;29;20094;-78
2022/11/20 00:56:15;;;;;;;3.53;2.53;;;2.70;99.90;;;1.09;100.00;100540.69;4939946;29;20035;-77
2022/11/20 00:58:44;;;;;;;3.22;2.20;;;2.70;99.90;;;1.16;100.00;100531.94;4948318;29;20038;-77
2022/11/20 01:01:19;;;;;;;4.78;2.67;;;2.80;99.90;;;1.21;100.00;100530.19;4949594;29;20036;-77
2022/11/20 01:03:48;;;;;;;4.07;2.50;;;2.80;99.90;;;1.25;100.00;100530.97;4944388;28;20161;-77
2022/11/20 01:06:33;;;;;;;4.45;2.45;;;2.80;99.90;;;1.27;100.00;100543.03;4957853;28;20035;-78
2022/11/20 01:09:05;;;;;;;3.30;2.38;;;2.80;99.90;;;1.26;100.00;100538.75;4948047;29;20468;-77
2022/11/20 01:11:39;;;;;;;2.88;2.20;;;2.90;99.90;;;1.26;100.00;100537.91;4948616;28;20038;-78
2022/11/20 01:14:14;;;;;;;4.95;2.67;;;2.90;99.90;;;1.28;100.00;100537.00;4932991;29;20125;-77
2022/11/20 01:16:44;;;;;;;4.15;2.70;;;2.80;99.90;;;1.26;100.00;100543.94;4941250;29;20031;-77
2022/11/20 01:19:14;;;;;;;3.47;2.40;;;2.90;99.90;;;1.20;100.00;100549.19;4945630;29;20032;-78
2022/11/20 01:21:42;;;;;;;3.45;2.50;;;2.80;99.90;;;1.19;100.00;100547.50;4948363;28;20038;-78
2022/11/20 01:24:12;;;;;;;4.35;2.70;;;2.80;99.90;;;1.16;100.00;100543.16;4947687;29;20079;-78
2022/11/20 01:26:41;;;;;;;4.10;2.72;;;2.80;99.90;;;1.15;100.00;100546.66;4943172;28;20118;-78
2022/11/20 01:29:12;;;;;;;3.92;2.28;;;2.80;99.90;;;1.12;100.00;100545.81;4940046;29;20031;-77
2022/11/20 01:31:38;;;;;;;3.17;2.35;;;2.70;99.90;;;0.99;100.00;100540.78;4948743;29;20035;-77
2022/11/20 01:34:13;;;;;;;5.00;2.95;;;2.60;99.90;;;0.95;100.00;100541.69;4927838;29;20048;-78
2022/11/20 01:36:40;;;;;;;3.67;2.30;;;2.60;99.90;;;0.95;100.00;100538.22;4949815;28;20035;-78
2022/11/20 01:39:15;;;;;;;4.38;2.90;;;2.60;99.90;;;0.98;100.00;100535.59;4948225;29;20396;-78
2022/11/20 01:44:48;;;;;;;3.38;2.60;;;2.60;99.90;;;0.95;100.00;100536.50;4949341;29;20042;-78
2022/11/20 01:47:32;;;;;;;4.07;2.65;;;2.50;99.90;;;0.85;100.00;100537.47;4949008;28;20034;-78
2022/11/20 01:50:16;;;;;;;7.05;2.72;;;2.50;99.90;;;0.83;100.00;100539.19;4948520;28;20102;-77
2022/11/20 01:52:49;;;;;;;4.97;2.83;;;2.50;99.90;;;0.80;100.00;100545.28;4947939;28;20114;-78
2022/11/20 01:55:39;;;;;;;3.45;2.30;;;2.50;99.90;;;0.86;100.00;100544.34;4948050;29;20027;-77
2022/11/20 01:58:05;;;;;;;3.60;2.63;;;2.50;99.90;;;0.93;100.00;100534.78;4945971;28;20067;-78
2022/11/20 02:00:31;;;;;;;3.47;2.72;;;2.60;99.90;;;0.98;100.00;100533.00;4961886;28;20184;-78
2022/11/20 02:03:06;;;;;;;3.83;2.58;;;2.60;99.90;;;0.95;100.00;100528.72;4934568;29;20024;-78
2022/11/20 02:05:59;;;;;;;3.75;2.90;;;2.60;99.90;;;1.00;100.00;100528.66;4952733;28;20043;-78
2022/11/20 02:08:25;;;;;;;2.85;2.42;;;2.60;99.90;;;1.02;100.00;100530.38;4954619;28;20404;-77
2022/11/20 02:10:51;;;;;;;4.18;2.85;;;2.60;99.90;;;1.02;100.00;100525.19;4947715;28;20043;-77
2022/11/20 02:16:03;;;;;;;5.60;3.05;;;2.70;99.90;;;1.08;100.00;100528.56;4953636;29;20506;-78
2022/11/20 02:18:29;;;;;;;4.78;2.90;;;2.70;99.90;;;1.07;100.00;100517.34;4951113;29;20027;-77
2022/11/20 02:21:36;;;;;;;4.10;2.80;;;2.70;99.90;;;1.10;100.00;100524.22;4937919;29;20032;-78
2022/11/20 02:24:11;;;;;;;3.90;2.70;;;2.70;99.90;;;1.07;100.00;100524.28;4944990;29;20063;-77
2022/11/20 02:27:18;;;;;;;6.00;3.00;;;2.60;99.90;;;1.06;100.00;100525.13;4965192;28;20163;-78
2022/11/20 02:29:57;;;;;;;4.85;2.72;;;2.60;99.90;;;0.96;100.00;100522.66;4945398;28;20591;-77
2022/11/20 02:32:33;;;;;;;4.30;3.22;;;2.60;99.90;;;0.94;100.00;100519.22;4932595;29;20047;-77
2022/11/20 02:35:26;;;;;;;4.75;3.00;;;2.50;99.90;;;0.83;100.00;100515.88;4964627;28;20051;-77
2022/11/20 02:37:56;;;;;;;3.92;2.42;;;2.50;99.90;;;0.75;100.00;100515.94;4950366;28;20051;-77
2022/11/20 02:40:24;;;;;;;5.03;2.88;;;2.40;99.90;;;0.69;100.00;100512.53;4954943;28;20042;-77
2022/11/20 02:42:55;;;;;;;4.70;2.92;;;2.40;99.90;;;0.73;100.00;100517.69;4963771;28;20035;-78
2022/11/20 02:45:22;;;;;;;5.50;3.10;;;2.40;99.90;;;0.73;100.00;100509.91;4952142;29;20119;-77
2022/11/20 02:47:48;;;;;;;3.78;2.70;;;2.40;99.90;;;0.73;100.00;100514.22;4948658;29;20095;-77
2022/11/20 02:50:14;;;;;;;4.30;3.13;;;2.40;99.90;;;0.74;100.00;100514.22;4932796;29;20050;-77
2022/11/20 02:52:40;;;;;;;3.95;2.97;;;2.40;99.90;;;0.76;100.00;100517.66;4943772;29;20523;-77
2022/11/20 02:55:07;;;;;;;6.10;3.38;;;2.40;99.90;;;0.78;100.00;100523.69;4961697;28;20035;-77
2022/11/20 02:57:32;;;;;;;11.00;3.15;;;2.40;99.90;;;0.84;100.00;100530.53;4959860;28;20042;-78
2022/11/20 02:59:58;;;;;;;4.95;3.28;;;2.40;99.90;;;0.87;100.00;100514.97;4951411;29;20024;-78
2022/11/20 03:02:24;;;;;;;3.70;2.78;;;2.50;99.90;;;0.91;100.00;100518.41;4947947;29;20042;-77
2022/11/20 03:04:50;;;;;;;4.00;2.70;;;2.50;99.90;;;0.88;100.00;100516.69;4960883;28;20147;-77
2022/11/20 03:07:18;;;;;;;3.47;2.72;;;2.50;99.90;;;0.86;100.00;100518.41;4945728;28;20412;-77
2022/11/20 03:09:44;;;;;;;4.68;3.08;;;2.50;99.90;;;0.88;100.00;100513.22;4951825;29;20031;-77
2022/11/20 03:12:09;;;;;;;9.55;3.10;;;2.50;99.90;;;0.88;100.00;100515.81;4944620;28;20106;-78
2022/11/20 03:14:35;;;;;;;6.85;3.63;;;2.50;99.90;;;0.90;100.00;100514.06;4948376;29;20110;-77
2022/11/20 03:17:01;;;;;;;6.85;3.10;;;2.50;99.90;;;0.91;100.00;100515.81;4948437;28;20111;-78
2022/11/20 03:19:27;;;;;;;11.82;3.22;;;2.50;99.90;;;0.86;100.00;100508.06;4947883;29;20556;-76
2022/11/20 03:21:53;;;;;;;5.43;3.55;;;2.50;99.90;;;0.86;100.00;100502.00;4932474;29;20404;-77
2022/11/20 03:24:18;;;;;;;6.25;3.80;;;2.50;99.90;;;0.82;100.00;100506.38;4941337;29;20560;-77
2022/11/20 03:26:44;;;;;;;8.20;3.53;;;2.50;99.90;;;0.79;100.00;100501.22;4960182;28;20050;-77
2022/11/20 03:29:10;;;;;;;4.90;3.30;;;2.40;99.90;;;0.70;100.00;100499.59;4959140;28;20043;-77
2022/11/20 03:31:42;;;;;;;8.20;3.65;;;2.40;99.90;;;0.71;100.00;100503.03;4942253;28;20403;-77
2022/11/20 03:34:10;;;;;;;5.28;3.45;;;2.30;99.90;;;0.66;100.00;100500.47;4947425;29;20067;-78
2022/11/20 03:36:42;;;;;;;7.30;3.70;;;2.30;99.90;;;0.67;100.00;100501.34;4941008;29;20027;-78
2022/11/20 03:39:08;;;;;;;6.63;3.25;;;2.30;99.90;;;0.66;100.00;100500.47;4948112;29;20035;-77
2022/11/20 03:41:40;;;;;;;4.82;3.38;;;2.30;99.90;;;0.66;100.00;100505.66;4948557;28;20106;-78
2022/11/20 03:44:08;;;;;;;5.72;3.55;;;2.30;99.90;;;0.68;100.00;100500.47;4943342;29;20035;-77
2022/11/20 03:46:34;;;;;;;6.63;3.85;;;2.30;99.90;;;0.73;100.00;100499.53;4941635;29;20032;-77
2022/11/20 03:49:01;;;;;;;5.18;3.70;;;2.30;99.90;;;0.76;100.00;100501.25;4946516;29;20042;-78
2022/11/20 03:51:30;;;;;;;4.82;3.33;;;2.40;99.90;;;0.77;100.00;100495.19;4946674;29;20493;-77
2022/11/20 03:53:59;;;;;;;7.57;3.90;;;2.40;99.90;;;0.76;100.00;100498.66;4944178;29;20051;-77
2022/11/20 03:56:29;;;;;;;5.70;4.10;;;2.40;99.90;;;0.79;100.00;100496.88;4947204;29;20596;-77
2022/11/20 03:58:56;;;;;;;7.93;4.47;;;2.40;99.90;;;0.81;100.00;100499.47;4947154;29;20167;-77
2022/11/20 04:01:34;;;;;;;7.95;4.80;;;2.40;99.90;;;0.80;100.00;100497.78;4946472;29;20033;-77
2022/11/20 04:04:00;;;;;;;7.72;5.30;;;2.40;99.90;;;0.77;100.00;100490.00;4933556;29;20059;-77
2022/11/20 04:06:35;;;;;;;7.60;5.03;;;2.40;99.90;;;0.76;100.00;100496.94;4927941;29;20451;-78
2022/11/20 04:09:01;;;;;;;8.10;5.13;;;2.40;99.90;;;0.70;100.00;100497.00;4933639;29;20492;-78
2022/11/20 04:11:30;;;;;;;7.00;5.05;;;2.30;99.90;;;0.65;100.00;100492.72;4948578;28;20122;-78
2022/11/20 04:13:59;;;;;;;7.07;4.38;;;2.20;99.90;;;0.59;100.00;100489.31;4947911;29;20061;-77
2022/11/20 04:16:28;;;;;;;7.43;5.07;;;2.20;99.90;;;0.54;100.00;100483.34;4949468;29;20031;-77
2022/11/20 04:19:00;;;;;;;10.15;5.60;;;2.20;99.90;;;0.55;100.00;100484.19;4945638;29;20103;-79
2022/11/20 04:21:27;;;;;;;11.98;6.30;;;2.20;99.90;;;0.51;100.00;100483.34;4947547;28;20112;-78
2022/11/20 04:23:53;;;;;;;9.27;5.95;;;2.20;99.90;;;0.49;100.00;100481.66;4947526;29;20027;-77
2022/11/20 04:26:21;;;;;;;10.55;6.00;;;2.10;99.90;;;0.47;100.00;100473.88;4946172;29;20028;-77
2022/11/20 04:28:47;;;;;;;10.45;6.38;;;2.10;99.90;;;0.46;100.00;100472.19;4941759;28;20051;-77
2022/11/20 04:31:19;;;;;;;15.85;5.95;;;2.10;99.90;;;0.44;100.00;100475.66;4946822;29;20086;-77
2022/11/20 04:33:46;;;;;;;11.88;6.25;;;2.10;99.90;;;0.45;100.00;100477.38;4946567;29;20103;-77
2022/11/20 04:36:26;;;;;;;10.20;5.93;;;2.10;99.90;;;0.33;100.00;100475.75;4958932;28;20020;-77
2022/11/20 04:38:58;;;;;;;9.13;4.95;;;2.00;99.90;;;0.25;100.00;100467.19;4946870;29;20059;-77
2022/11/20 04:41:29;;;;;;;8.60;5.13;;;2.00;99.90;;;0.22;100.00;100462.00;4944423;28;20024;-77
2022/11/20 04:44:03;;;;;;;10.50;5.70;;;1.90;99.90;;;0.18;100.00;100466.38;4939736;29;20047;-77
2022/11/20 04:46:32;;;;;;;10.27;6.20;;;1.90;99.90;;;0.19;100.00;100460.31;4946940;29;20126;-77
2022/11/20 04:48:59;;;;;;;10.40;6.38;;;1.90;99.90;;;0.17;100.00;100457.75;4947486;29;20047;-77
2022/11/20 04:51:26;;;;;;;11.32;6.00;;;1.90;99.90;;;0.25;100.00;100460.25;4940978;29;20050;-78
2022/11/20 04:53:51;;;;;;;11.20;6.70;;;2.00;99.90;;;0.35;100.00;100464.50;4931511;29;20519;-77
2022/11/20 04:56:17;;;;;;;17.75;6.35;;;2.00;99.90;;;0.38;100.00;100463.59;4942826;28;20123;-76
2022/11/20 04:58:43;;;;;;;14.85;7.53;;;2.00;99.90;;;0.39;100.00;100458.41;4945333;29;20087;-77
2022/11/20 05:01:16;;;;;;;11.48;6.90;;;2.10;99.90;;;0.44;100.00;100463.56;4942946;29;20028;-77
2022/11/20 05:03:43;;;;;;;13.38;7.10;;;2.10;99.90;;;0.42;100.00;100460.13;4948537;28;20043;-77
2022/11/20 05:06:12;;;;;;;12.63;6.88;;;2.10;99.90;;;0.45;100.00;100460.06;4935494;29;20060;-78
2022/11/20 05:08:38;;;;;;;12.18;7.47;;;2.10;99.90;;;0.46;100.00;100467.00;4941709;29;20071;-77
2022/11/20 05:11:08;;;;;;;12.40;7.80;;;2.10;99.90;;;0.47;100.00;100462.66;4945007;28;20395;-77
2022/11/20 05:13:34;;;;;;;16.95;8.90;;;2.10;99.90;;;0.47;100.00;100460.06;4948798;28;20594;-78
2022/11/20 05:16:07;;;;;;;15.57;8.20;;;2.10;99.90;;;0.50;100.00;100468.69;4943073;29;20058;-77
2022/11/20 05:18:34;;;;;;;17.65;9.55;;;2.20;99.90;;;0.50;100.00;100458.31;4946847;29;20030;-77
2022/11/20 05:21:01;;;;;;;14.45;9.05;;;2.10;99.90;;;0.49;100.00;100451.41;4947467;28;20035;-77
2022/11/20 05:23:28;;;;;;;14.55;8.20;;;2.20;99.90;;;0.52;100.00;100455.69;4944765;29;20027;-77
2022/11/20 05:26:05;;;;;;;17.92;8.95;;;2.20;99.90;;;0.51;100.00;100454.84;4945712;28;20500;-77
2022/11/20 05:28:32;;;;;;;13.82;8.57;;;2.20;99.90;;;0.52;100.00;100458.28;4941247;29;20035;-77
2022/11/20 05:31:13;;;;;;;15.05;8.77;;;2.20;99.90;;;0.55;100.00;100466.03;4957396;28;20059;-78
2022/11/20 05:33:44;;;;;;;14.77;8.20;;;2.20;99.90;;;0.56;100.00;100466.03;4940952;29;20424;-77
2022/11/20 05:36:12;;;;;;;14.50;8.40;;;2.20;99.90;;;0.57;100.00;100466.91;4949777;29;20054;-78
2022/11/20 05:38:39;;;;;;;15.55;8.15;;;2.20;99.90;;;0.55;100.00;100464.31;4944874;29;20035;-77
2022/11/20 05:41:12;;;;;;;22.75;9.02;;;2.20;99.90;;;0.54;100.00;100453.94;4941098;29;20027;-77
2022/11/20 05:43:40;;;;;;;17.60;9.10;;;2.20;99.90;;;0.50;100.00;100457.47;4928156;29;20032;-77
2022/11/20 05:46:09;;;;;;;16.17;8.95;;;2.20;99.90;;;0.45;100.00;100452.31;4956905;28;20061;-76
2022/11/20 05:48:36;;;;;;;23.60;9.77;;;2.10;99.90;;;0.40;100.00;100446.31;4943696;28;20038;-77
2022/11/20 05:51:05;;;;;;;18.05;9.55;;;2.10;99.90;;;0.36;100.00;100449.81;4948720;29;20027;-78
2022/11/20 05:53:36;;;;;;;23.75;10.05;;;2.10;99.90;;;0.34;100.00;100448.97;4940700;29;20035;-78
2022/11/20 05:56:08;;;;;;;19.77;10.15;;;2.00;99.90;;;0.33;100.00;100444.69;4947059;29;20027;-77
2022/11/20 05:58:34;;;;;;;23.73;10.07;;;2.00;99.90;;;0.34;100.00;100441.19;4946911;29;20039;-77
2022/11/20 06:01:18;;;;;;;20.15;8.98;;;2.00;99.90;;;0.33;100.00;100449.84;4948778;29;20024;-77
2022/11/20 06:03:47;;;;;;;20.40;9.85;;;2.00;99.90;;;0.35;100.00;100443.78;4944284;29;20034;-77
2022/11/20 06:06:17;;;;;;;24.13;10.32;;;2.00;99.90;;;0.33;100.00;100442.94;4957098;28;20567;-77
2022/11/20 06:08:43;;;;;;;19.65;9.50;;;2.00;99.90;;;0.35;100.00;100445.53;4945222;29;20044;-77
2022/11/20 06:11:15;;;;;;;22.15;10.27;;;2.00;99.90;;;0.34;100.00;100442.03;4939993;29;20032;-76
2022/11/20 06:13:45;;;;;;;24.17;9.93;;;2.00;99.90;;;0.33;100.00;100442.94;4947067;28;20114;-77
2022/11/20 06:16:13;;;;;;;19.35;9.50;;;2.00;99.90;;;0.32;100.00;100440.34;4946560;29;20041;-78
2022/11/20 06:18:39;;;;;;;18.55;9.20;;;2.00;99.90;;;0.33;100.00;100439.50;4947880;29;20441;-77
2022/11/20 06:21:17;;;;;;;20.58;9.75;;;2.00;99.90;;;0.35;100.00;100440.34;4955119;28;20032;-77
2022/11/20 06:23:43;;;;;;;14.70;7.90;;;2.00;99.90;;;0.35;100.00;100438.59;4954464;28;20035;-77
2022/11/20 06:26:14;;;;;;;15.65;8.25;;;2.00;99.90;;;0.37;100.00;100436.84;4947964;29;20027;-77
2022/11/20 06:28:40;;;;;;;14.57;7.72;;;2.00;99.90;;;0.36;100.00;100437.72;4922516;29;20063;-77
2022/11/20 06:31:07;;;;;;;17.42;8.75;;;2.00;99.90;;;0.42;100.00;100438.53;4947270;28;20027;-77
2022/11/20 06:33:33;;;;;;;19.52;8.63;;;2.00;99.90;;;0.39;100.00;100435.13;4949766;29;20035;-76
2022/11/20 06:36:00;;;;;;;17.67;8.48;;;2.10;99.90;;;0.38;100.00;100438.56;4944581;28;20369;-78
2022/11/20 06:38:27;;;;;;;22.05;9.15;;;2.00;99.90;;;0.40;100.00;100439.41;4950294;28;20412;-77
2022/11/20 06:40:57;;;;;;;18.67;8.55;;;2.10;99.90;;;0.41;100.00;100440.25;4928072;29;20432;-77
2022/11/20 06:43:25;;;;;;;21.73;9.57;;;2.10;99.90;;;0.41;100.00;100437.66;4948137;28;20083;-77
2022/11/20 06:45:56;;;;;;;21.05;9.57;;;2.10;99.90;;;0.42;100.00;100433.38;4945841;28;20027;-77
2022/11/20 06:48:26;;;;;;;23.33;9.57;;;2.10;99.90;;;0.40;100.00;100430.78;4959368;28;20070;-77
2022/11/20 06:50:52;;;;;;;26.10;11.10;;;2.10;99.90;;;0.40;100.00;100430.78;4960548;28;20042;-78
2022/11/20 06:53:18;;;;;;;25.85;10.98;;;2.10;99.90;;;0.39;100.00;100429.09;4948852;29;20043;-77
2022/11/20 06:55:46;;;;;;;26.30;11.15;;;2.10;99.90;;;0.41;100.00;100437.66;4949031;29;20216;-77
2022/11/20 06:58:13;;;;;;;24.77;11.23;;;2.10;99.90;;;0.42;100.00;100430.78;4952220;28;20034;-77
2022/11/20 07:00:39;;;;;;;28.42;12.20;;;2.10;99.90;;;0.43;100.00;100435.91;4935942;29;20035;-77
2022/11/20 07:03:08;;;;;;;27.95;11.57;;;2.10;99.90;;;0.44;100.00;100422.09;4949545;28;20023;-77
2022/11/20 07:05:35;;;;;;;30.83;11.93;;;2.10;99.90;;;0.47;100.00;100429.84;4940554;29;20142;-77
2022/11/20 07:08:02;;;;;;;24.48;11.35;;;2.10;99.90;;;0.49;100.00;100420.31;4951456;28;20056;-77
2022/11/20 07:10:28;;;;;;;24.40;11.02;;;2.20;99.90;;;0.51;100.00;100428.94;4960937;28;20027;-78
2022/11/20 07:12:56;;;;;;;31.88;12.25;;;2.20;99.90;;;0.58;100.00;100430.63;4947917;28;20070;-77
2022/11/20 07:15:24;;;;;;;24.70;10.05;;;2.20;99.90;;;0.63;100.00;100433.16;4949919;29;20040;-77
2022/11/20 07:17:51;;;;;;;23.10;9.95;;;2.30;99.90;;;0.67;100.00;100428.78;4947913;28;20070;-77
2022/11/20 07:20:17;;;;;;;26.73;11.02;;;2.30;99.90;;;0.69;100.00;100427.03;4949276;29;20039;-77
2022/11/20 07:22:42;;;;;;;25.83;11.77;;;2.30;99.90;;;0.72;100.00;100433.03;4949472;29;20031;-77
2022/11/20 07:25:09;;;;;;;27.20;11.48;;;2.30;99.90;;;0.73;100.00;100432.16;4947210;29;20063;-77
2022/11/20 07:27:36;;;;;;;28.77;11.88;;;2.40;99.90;;;0.76;100.00;100432.13;4934464;29;20034;-77
2022/11/20 07:30:03;;;;;;;31.77;11.98;;;2.40;99.90;;;0.77;100.00;100425.22;4947128;29;20554;-77
2022/11/20 07:32:29;;;;;;;27.92;12.95;;;2.40;99.90;;;0.79;100.00;100426.06;4948052;29;20043;-77
2022/11/20 07:34:55;;;;;;;24.67;12.10;;;2.40;99.90;;;0.80;100.00;100423.47;4951129;29;20039;-77
2022/11/20 07:37:23;;;;;;;24.05;11.68;;;2.40;99.90;;;0.83;100.00;100425.16;4947827;28;20159;-77
2022/11/20 07:39:49;;;;;;;25.27;12.27;;;2.50;99.90;;;0.83;100.00;100425.16;4943421;29;20031;-78
2022/11/20 07:42:17;;;;;;;19.40;10.60;;;2.40;99.90;;;0.89;100.00;100425.09;4939335;28;20037;-77
2022/11/20 07:44:43;;;;;;;28.05;12.32;;;2.50;99.90;;;0.95;100.00;100413.75;4944795;29;20023;-77
2022/11/20 07:47:09;;;;;;;25.65;11.63;;;2.50;99.90;;;0.98;100.00;100426.72;4950048;28;20194;-78
2022/11/20 07:49:35;;;;;;;24.08;11.52;;;2.50;99.90;;;0.99;100.00;100415.44;4942278;29;20494;-78
2022/11/20 07:52:01;;;;;;;25.67;11.90;;;2.60;99.90;;;1.02;100.00;100421.47;4948159;29;20114;-78
2022/11/20 07:54:26;;;;;;;24.52;11.85;;;2.60;99.90;;;1.03;100.00;100423.16;4941286;29;20119;-77
2022/11/20 07:56:55;;;;;;;26.63;11.70;;;2.60;99.90;;;1.00;100.00;100423.22;4943262;28;20122;-77
2022/11/20 07:59:20;;;;;;;24.17;12.25;;;2.60;99.90;;;1.01;100.00;100419.72;4949879;29;20028;-77
2022/11/20 08:01:46;;;;;;;24.30;11.52;;;2.60;99.90;;;1.01;100.00;100419.72;4946516;29;20034;-77
2022/11/20 08:04:12;;;;;;;25.50;12.65;;;2.60;99.90;;;1.07;100.00;100421.41;4947334;28;20098;-78
2022/11/20 08:06:38;;;;;;;23.17;11.77;;;2.60;99.90;;;1.14;100.00;100422.19;4967615;23;20038;-78
2022/11/20 08:09:04;;;;;;;25.92;13.23;;;2.70;99.90;;;1.21;100.00;100421.25;4990477;28;20117;-78
2022/11/20 08:14:16;;;;;;;22.77;12.35;;;2.80;99.90;;;1.35;100.00;100421.91;4992636;28;20521;-78
2022/11/20 08:16:49;;;;;;;18.33;11.07;;;2.90;99.90;;;1.39;100.00;100413.19;4991059;28;20039;-78
2022/11/20 08:19:17;;;;;;;24.95;13.52;;;2.90;99.90;;;1.46;100.00;100416.56;4983676;28;20034;-77
2022/11/20 08:21:46;;;;;;;24.00;12.50;;;2.90;99.90;;;1.42;100.00;100410.53;4987486;28;20033;-78
2022/11/20 08:24:12;;;;;;;21.73;11.75;;;3.00;99.90;;;1.43;100.00;100407.09;4975073;28;20030;-78
2022/11/20 08:26:39;;;;;;;21.08;11.70;;;3.00;99.90;;;1.42;100.00;100400.16;4987369;28;20487;-78
2022/11/20 08:29:06;;;;;;;20.90;11.13;;;3.00;99.90;;;1.36;100.00;100402.88;4970719;28;20037;-78
2022/11/20 08:31:34;;;;;;;17.58;10.40;;;3.00;99.90;;;1.41;100.00;100400.22;4988857;28;20033;-78
2022/11/20 08:34:00;;;;;;;15.90;9.43;;;2.90;99.90;;;1.35;100.00;100395.94;4966855;28;20038;-79
2022/11/20 08:36:28;;;;;;;19.05;10.20;;;2.90;99.90;;;1.34;100.00;100401.16;4986029;28;20056;-78
2022/11/20 08:38:55;;;;;;;34.85;12.60;;;2.90;99.90;;;1.30;100.00;100400.34;4982874;28;20077;-78
2022/11/20 08:41:28;;;;;;;61.60;12.43;;;2.90;99.90;;;1.25;100.00;100394.34;4982884;28;20116;-78
2022/11/20 08:43:55;;;;;;;115.93;14.98;;;2.80;99.90;;;1.18;100.00;100392.75;4989989;28;20027;-78
2022/11/20 08:46:22;;;;;;;173.38;16.50;;;2.80;99.90;;;1.13;100.00;100392.81;5002516;28;20092;-78
2022/11/20 08:48:49;;;;;;;41.03;13.00;;;2.80;99.90;;;1.12;100.00;100395.41;4989776;28;20049;-78
2022/11/20 08:51:15;;;;;;;33.15;13.05;;;2.70;99.90;;;1.16;100.00;100402.28;5002757;28;20092;-78
2022/11/20 08:53:43;;;;;;;194.13;15.32;;;2.70;99.90;;;1.12;100.00;100406.63;4984454;28;20038;-78
2022/11/20 08:56:09;;;;;;;483.30;19.73;;;2.70;99.90;;;1.12;100.00;100403.19;4985716;28;20026;-78
2022/11/20 08:58:36;;;;;;;203.35;17.80;;;2.70;99.90;;;1.06;100.00;100409.31;4984544;28;20499;-79
2022/11/20 09:01:02;;;;;;;195.20;18.33;;;2.70;99.90;;;1.05;100.00;100404.16;4986408;28;20478;-79
2022/11/20 09:03:28;;;;;;;143.10;16.80;;;2.70;99.90;;;1.03;100.00;100407.59;4966199;28;20037;-79
2022/11/20 09:06:00;;;;;;;81.80;17.15;;;2.70;99.90;;;1.05;100.00;100410.19;4984331;28;20077;-78
2022/11/20 09:08:27;;;;;;;81.20;18.23;;;2.70;99.90;;;1.07;100.00;100405.84;4982766;28;20044;-79
2022/11/20 09:10:58;;;;;;;47.50;15.95;;;2.70;99.90;;;1.07;100.00;100408.44;4987102;28;20033;-78
2022/11/20 09:13:27;;;;;;;59.05;16.77;;;2.70;99.90;;;1.12;100.00;100408.38;4970577;28;20073;-79
2022/11/20 09:16:07;;;;;;;43.35;16.45;;;2.70;99.90;;;1.20;100.00;100410.00;4971446;28;20502;-79
2022/11/20 09:18:38;;;;;;;41.30;15.95;;;2.80;99.90;;;1.30;100.00;100413.34;4990900;28;20112;-78
2022/11/20 09:21:13;;;;;;;43.63;17.05;;;2.80;99.90;;;1.39;100.00;100410.59;4986296;28;20038;-79
2022/11/20 09:23:42;;;;;;;34.53;16.05;;;2.90;99.90;;;1.49;100.00;100406.16;4971290;28;20445;-78
2022/11/20 09:26:13;;;;;;;32.95;14.77;;;3.00;99.90;;;1.56;100.00;100414.72;4984201;28;20402;-78
2022/11/20 09:28:40;;;;;;;27.67;13.57;;;3.10;99.90;;;1.58;100.00;100405.16;4988575;23;20041;-78
2022/11/20 09:31:29;;;;;;;24.10;12.80;;;3.10;99.90;;;1.58;100.00;100406.00;4981352;28;20089;-78
2022/11/20 09:33:55;;;;;;;21.30;11.70;;;3.10;99.90;;;1.58;100.00;100403.41;4965670;28;20573;-78
2022/11/20 09:36:21;;;;;;;26.38;13.68;;;3.10;99.90;;;1.60;100.00;100404.25;4950028;28;20030;-78
2022/11/20 09:38:48;;;;;;;23.55;13.13;;;3.10;99.90;;;1.58;100.00;100405.16;4964360;28;20030;-79
2022/11/20 09:41:54;;;;;;;24.25;13.07;;;3.10;99.90;;;1.59;100.00;100405.13;4965560;28;20030;-78
2022/11/20 09:44:54;;;;;;;29.92;14.18;;;3.10;99.90;;;1.54;100.00;100403.50;4966118;28;20074;-78
2022/11/20 09:47:59;;;;;;;32.33;14.60;;;3.10;99.90;;;1.51;100.00;100406.09;4979233;28;20132;-78
2022/11/20 09:50:51;;;;;;;28.50;14.13;;;3.10;99.90;;;1.48;100.00;100398.38;4981894;28;20027;-78
2022/11/20 09:54:01;;;;;;;30.23;15.27;;;3.10;99.90;;;1.54;100.00;100393.09;4963862;28;20450;-78
2022/11/20 09:56:28;;;;;;;25.90;14.55;;;3.20;99.90;;;1.58;100.00;100395.63;4981982;28;20031;-78
2022/11/20 09:59:00;;;;;;;28.13;14.90;;;3.20;99.90;;;1.64;100.00;100392.06;4964082;28;20039;-78
2022/11/20 10:01:40;;;;;;;26.23;14.68;;;3.20;99.90;;;1.68;100.00;100387.69;4965472;28;20037;-78
2022/11/20 10:04:20;;;;;;;23.67;14.15;;;3.20;99.90;;;1.62;100.00;100394.72;4962229;28;20118;-78
2022/11/20 10:07:18;;;;;;;29.38;15.35;;;3.20;99.90;;;1.66;100.00;100392.06;4965652;28;20101;-78
2022/11/20 10:09:58;;;;;;;28.40;13.85;;;3.20;99.90;;;1.63;100.00;100379.97;4969613;28;20070;-78
2022/11/20 10:13:08;;;;;;;26.77;14.70;;;3.20;99.90;;;1.56;100.00;100378.38;4966736;28;20042;-78
2022/11/20 10:16:15;;;;;;;25.90;13.75;;;3.20;99.90;;;1.41;100.00;100376.84;4961930;28;20050;-79
2022/11/20 10:19:13;;;;;;;24.95;13.73;;;3.00;99.90;;;1.27;100.00;100378.78;5003468;28;20038;-79
2022/11/20 10:22:36;;;;;;;23.73;13.68;;;3.00;99.90;;;1.19;100.00;100376.31;4987882;28;20495;-79
2022/11/20 10:25:20;;;;;;;23.33;13.32;;;2.90;99.90;;;1.17;100.00;100373.72;4916909;29;20327;-79
2022/11/20 10:28:16;;;;;;;26.67;14.70;;;2.80;99.90;;;1.14;100.00;100372.91;4997216;28;20053;-80
2022/11/20 10:31:02;;;;;;;28.60;14.45;;;2.80;99.90;;;1.12;100.00;100362.53;4970858;28;20442;-79
2022/11/20 10:33:46;;;;;;;26.38;14.13;;;2.70;99.90;;;1.09;100.00;100366.94;4973641;28;20122;-80
2022/11/20 10:36:27;;;;;;;27.60;14.85;;;2.70;99.90;;;1.07;100.00;100366.94;4974124;28;20019;-79
2022/11/20 10:39:45;;;;;;;30.20;13.93;;;2.70;99.90;;;1.01;100.00;100359.25;4954134;28;20026;-79